Tilghman, Maryland
Current Conditions -  °F | °C
As of 1:53 PM on Tuesday 21 Oct 2014 (Local Time) from KESN Reporting Station
Few Clouds Few Clouds  
Wind Chill: 72°   Ceiling: Unl
Heat Index: 72°   Visibility: 10mi
Dew Point: 48°   Wind: 5mph
Humidity: 43%   Direction: 320°NW
Pressure: 29.85"   Gusts: NA
Location:  38.72°N, 76.33°W
Report Text: KESN 211753Z 32004KT 10SM FEW047 22/09 A2985
Loading
Personal Weather Stations






























Interactive Weather Map
Tropical Storm Tracking
New forecast layout! Learn more

10-Day Weather Forecast

Advertisements
Track Severe Weather on mobile